Time;durP1;ratioP1;P1;durP2;ratioP2;P2;SDS_P1;SDS_P2;PMS_P1;PMS_P2;Temp;Humidity;BMP_temperature;BMP_pressure;BME280_temperature;BME280_humidity;BME280_pressure;Samples;Min_cycle;Max_cycle;Signal;HPM_P1;HPM_P2
2023/04/08 00:01:10;;;;;;;0.77;0.73;;;;;;;;;;5008728;28;20057;-73
2023/04/08 00:03:36;;;;;;;1.02;0.80;;;;;;;;;;5010074;28;20030;-73
2023/04/08 00:06:03;;;;;;;1.00;0.95;;;;;;;;;;4995850;28;20124;-73
2023/04/08 00:08:29;;;;;;;0.50;0.50;;;;;;;;;;4997615;28;20501;-73
2023/04/08 00:10:55;;;;;;;0.93;0.82;;;;;;;;;;5005170;28;20477;-73
2023/04/08 00:13:21;;;;;;;2.80;0.73;;;;;;;;;;5007431;28;20041;-73
2023/04/08 00:15:47;;;;;;;1.05;0.90;;;;;;;;;;5007077;28;20034;-73
2023/04/08 00:18:14;;;;;;;1.02;0.70;;;;;;;;;;5009580;28;20465;-73
2023/04/08 00:20:40;;;;;;;1.52;0.70;;;;;;;;;;5004065;28;20034;-73
2023/04/08 00:23:06;;;;;;;0.77;0.68;;;;;;;;;;5009532;28;20145;-72
2023/04/08 00:25:32;;;;;;;1.88;0.93;;;;;;;;;;5009908;28;20041;-73
2023/04/08 00:27:58;;;;;;;1.80;0.77;;;;;;;;;;5008579;28;20026;-73
2023/04/08 00:30:26;;;;;;;1.63;0.80;;;;;;;;;;5007025;28;20564;-73
2023/04/08 00:32:52;;;;;;;1.35;1.00;;;;;;;;;;4997755;28;20037;-73
2023/04/08 00:35:18;;;;;;;2.13;1.10;;;;;;;;;;5004602;28;20041;-73
2023/04/08 00:37:44;;;;;;;0.95;0.70;;;;;;;;;;5002012;28;20033;-73
2023/04/08 00:40:13;;;;;;;1.88;1.02;;;;;;;;;;4997394;28;20045;-73
2023/04/08 00:42:39;;;;;;;1.05;0.93;;;;;;;;;;4998640;28;20056;-73
2023/04/08 00:45:06;;;;;;;1.30;0.95;;;;;;;;;;5004363;28;20496;-73
2023/04/08 00:47:32;;;;;;;2.30;0.98;;;;;;;;;;4997184;28;20508;-73
2023/04/08 00:49:58;;;;;;;0.82;0.73;;;;;;;;;;5006580;28;20022;-73
2023/04/08 00:52:24;;;;;;;0.50;0.50;;;;;;;;;;4999268;28;20058;-73
2023/04/08 00:54:50;;;;;;;1.30;1.00;;;;;;;;;;5006492;28;20061;-73
2023/04/08 00:57:16;;;;;;;2.05;1.17;;;;;;;;;;5006065;28;20034;-74
2023/04/08 00:59:42;;;;;;;1.88;1.05;;;;;;;;;;5000170;28;20117;-73
2023/04/08 01:02:14;;;;;;;1.70;0.90;;;;;;;;;;5005575;28;20038;-73
2023/04/08 01:04:48;;;;;;;1.85;1.27;;;;;;;;;;4989603;28;20030;-74
2023/04/08 01:07:17;;;;;;;1.25;1.00;;;;;;;;;;4998441;28;20397;-73
2023/04/08 01:09:49;;;;;;;1.88;1.00;;;;;;;;;;5002536;28;20137;-73
2023/04/08 01:12:19;;;;;;;3.70;1.25;;;;;;;;;;5000620;28;20061;-73
2023/04/08 01:14:46;;;;;;;1.15;0.82;;;;;;;;;;4990833;28;20026;-73
2023/04/08 01:17:13;;;;;;;2.40;1.50;;;;;;;;;;4994861;28;20034;-73
2023/04/08 01:19:41;;;;;;;2.00;1.17;;;;;;;;;;4990466;28;20414;-73
2023/04/08 01:22:19;;;;;;;1.48;1.00;;;;;;;;;;4998520;28;20298;-74
2023/04/08 01:24:47;;;;;;;2.00;0.93;;;;;;;;;;5004863;28;20022;-73
2023/04/08 01:27:14;;;;;;;1.23;0.93;;;;;;;;;;5005894;28;20034;-73
2023/04/08 01:29:40;;;;;;;0.93;0.90;;;;;;;;;;5000115;28;20058;-73
2023/04/08 01:32:07;;;;;;;2.08;1.13;;;;;;;;;;4993457;28;20037;-72
2023/04/08 01:34:34;;;;;;;2.80;1.30;;;;;;;;;;5005381;28;20481;-73
2023/04/08 01:37:01;;;;;;;1.60;1.40;;;;;;;;;;5005682;28;20104;-74
2023/04/08 01:39:28;;;;;;;1.67;1.30;;;;;;;;;;4997462;28;20383;-74
2023/04/08 01:41:54;;;;;;;2.22;1.05;;;;;;;;;;4989420;28;20058;-73
2023/04/08 01:44:21;;;;;;;1.40;1.10;;;;;;;;;;5001763;28;20022;-73
2023/04/08 01:46:49;;;;;;;1.27;1.13;;;;;;;;;;4994892;28;20097;-73
2023/04/08 01:49:15;;;;;;;2.30;1.60;;;;;;;;;;5002320;28;20037;-73
2023/04/08 01:51:42;;;;;;;1.48;1.00;;;;;;;;;;4996433;28;20018;-73
2023/04/08 01:54:08;;;;;;;1.25;1.15;;;;;;;;;;4997367;28;20091;-74
2023/04/08 01:56:38;;;;;;;1.48;1.02;;;;;;;;;;5007764;28;20037;-73
2023/04/08 01:59:07;;;;;;;1.58;1.25;;;;;;;;;;5005006;28;20034;-72
2023/04/08 02:01:34;;;;;;;2.72;1.05;;;;;;;;;;4991084;28;20046;-73
2023/04/08 02:04:01;;;;;;;3.28;1.52;;;;;;;;;;4996153;28;20624;-73
2023/04/08 02:06:28;;;;;;;1.58;1.08;;;;;;;;;;4999339;28;20132;-74
2023/04/08 02:08:56;;;;;;;2.70;1.00;;;;;;;;;;4989358;28;20469;-74
2023/04/08 02:11:22;;;;;;;2.13;1.20;;;;;;;;;;4999774;28;20569;-72
2023/04/08 02:13:48;;;;;;;3.05;1.13;;;;;;;;;;4999198;28;20026;-73
2023/04/08 02:16:14;;;;;;;2.38;1.27;;;;;;;;;;5001771;28;20105;-73
2023/04/08 02:18:43;;;;;;;3.05;1.42;;;;;;;;;;4998725;28;20049;-73
2023/04/08 02:21:15;;;;;;;1.67;1.13;;;;;;;;;;4998070;28;20040;-72
2023/04/08 02:23:45;;;;;;;2.70;1.40;;;;;;;;;;4993796;28;20061;-73
2023/04/08 02:26:15;;;;;;;1.98;1.20;;;;;;;;;;4997870;28;20030;-74
2023/04/08 02:28:41;;;;;;;1.70;1.20;;;;;;;;;;4999718;28;20029;-73
2023/04/08 02:31:12;;;;;;;1.95;1.30;;;;;;;;;;4989730;28;20097;-73
2023/04/08 02:33:38;;;;;;;1.73;1.20;;;;;;;;;;5000568;28;20105;-74
2023/04/08 02:36:05;;;;;;;2.40;1.42;;;;;;;;;;5002006;28;20339;-74
2023/04/08 02:38:31;;;;;;;2.42;1.40;;;;;;;;;;5005701;28;20088;-73
2023/04/08 02:40:57;;;;;;;2.17;1.20;;;;;;;;;;4995237;28;20509;-73
2023/04/08 02:43:31;;;;;;;1.65;1.20;;;;;;;;;;5003298;28;20057;-73
2023/04/08 02:45:57;;;;;;;3.00;1.60;;;;;;;;;;4993522;28;20065;-74
2023/04/08 02:48:23;;;;;;;1.83;1.33;;;;;;;;;;4998230;28;20034;-73
2023/04/08 02:50:49;;;;;;;1.40;0.93;;;;;;;;;;4990150;28;20026;-73
2023/04/08 02:53:15;;;;;;;1.52;0.88;;;;;;;;;;5004537;28;20030;-73
2023/04/08 02:55:41;;;;;;;2.92;1.67;;;;;;;;;;5001833;28;20358;-73
2023/04/08 02:58:07;;;;;;;0.95;0.85;;;;;;;;;;5007294;28;20033;-73
2023/04/08 03:00:33;;;;;;;1.90;1.23;;;;;;;;;;5007245;28;20393;-73
2023/04/08 03:02:59;;;;;;;2.22;1.38;;;;;;;;;;5007767;28;20440;-73
2023/04/08 03:05:26;;;;;;;4.05;1.13;;;;;;;;;;4992003;28;20019;-73
2023/04/08 03:07:52;;;;;;;1.23;1.13;;;;;;;;;;5001071;28;20036;-73
2023/04/08 03:10:18;;;;;;;2.08;1.35;;;;;;;;;;4997974;28;20729;-73
2023/04/08 03:12:44;;;;;;;2.92;1.38;;;;;;;;;;5002058;28;20578;-72
2023/04/08 03:15:10;;;;;;;1.42;1.08;;;;;;;;;;4991300;28;20038;-73
2023/04/08 03:17:36;;;;;;;2.70;1.40;;;;;;;;;;5003301;28;20030;-73
2023/04/08 03:20:03;;;;;;;1.20;1.02;;;;;;;;;;4995729;28;20445;-73
2023/04/08 03:22:30;;;;;;;2.28;1.65;;;;;;;;;;4998262;28;20042;-73
2023/04/08 03:24:55;;;;;;;1.90;1.13;;;;;;;;;;5004422;28;20034;-73
2023/04/08 03:27:21;;;;;;;2.97;1.40;;;;;;;;;;5007244;28;20354;-73
2023/04/08 03:29:47;;;;;;;5.95;1.42;;;;;;;;;;5000077;28;20445;-73
2023/04/08 03:32:13;;;;;;;2.85;1.58;;;;;;;;;;5001173;28;20034;-73
2023/04/08 03:34:39;;;;;;;2.15;1.65;;;;;;;;;;5004425;28;20042;-73
2023/04/08 03:37:05;;;;;;;5.00;1.88;;;;;;;;;;5001353;28;20093;-73
2023/04/08 03:39:32;;;;;;;2.17;1.60;;;;;;;;;;4998555;28;20041;-73
2023/04/08 03:41:59;;;;;;;2.85;1.58;;;;;;;;;;4998507;28;20064;-73
2023/04/08 03:44:26;;;;;;;2.78;1.63;;;;;;;;;;4995253;28;20018;-73
2023/04/08 03:46:52;;;;;;;3.65;1.25;;;;;;;;;;4996287;28;20144;-73
2023/04/08 03:49:18;;;;;;;1.98;0.98;;;;;;;;;;4998656;28;20113;-73
2023/04/08 03:51:44;;;;;;;3.72;1.58;;;;;;;;;;5007489;28;20070;-73
2023/04/08 03:54:09;;;;;;;2.03;1.65;;;;;;;;;;4999729;28;20097;-73
2023/04/08 03:56:35;;;;;;;3.35;1.20;;;;;;;;;;5005836;28;20042;-73
2023/04/08 03:59:01;;;;;;;2.38;1.33;;;;;;;;;;5000128;28;20053;-73
2023/04/08 04:01:29;;;;;;;3.20;1.45;;;;;;;;;;4998599;28;20049;-73
2023/04/08 04:03:54;;;;;;;2.08;1.38;;;;;;;;;;5005745;28;20022;-73
2023/04/08 04:06:20;;;;;;;2.85;1.20;;;;;;;;;;5006127;28;20030;-73
2023/04/08 04:08:46;;;;;;;2.20;1.30;;;;;;;;;;5009298;28;20076;-72
2023/04/08 04:11:12;;;;;;;2.08;1.40;;;;;;;;;;5003892;28;20030;-73
2023/04/08 04:13:38;;;;;;;1.58;1.15;;;;;;;;;;4998307;28;20015;-73
2023/04/08 04:16:04;;;;;;;2.38;1.40;;;;;;;;;;5004689;28;20025;-73
2023/04/08 04:18:30;;;;;;;2.22;1.08;;;;;;;;;;5008201;28;20532;-73
2023/04/08 04:20:56;;;;;;;4.93;1.58;;;;;;;;;;5005149;28;20057;-73
2023/04/08 04:23:24;;;;;;;2.55;1.60;;;;;;;;;;5006644;28;20029;-73
2023/04/08 04:25:50;;;;;;;1.35;1.17;;;;;;;;;;4999529;28;20018;-73
2023/04/08 04:28:16;;;;;;;1.92;1.13;;;;;;;;;;5005695;28;20100;-74
2023/04/08 04:30:42;;;;;;;4.45;1.75;;;;;;;;;;4999653;28;20038;-73
2023/04/08 04:33:08;;;;;;;2.33;1.27;;;;;;;;;;5000536;28;20030;-73
2023/04/08 04:35:34;;;;;;;3.08;1.42;;;;;;;;;;4994727;28;20482;-73
2023/04/08 04:38:00;;;;;;;3.95;1.60;;;;;;;;;;5009225;28;20079;-73
2023/04/08 04:40:26;;;;;;;2.20;1.35;;;;;;;;;;4992987;28;20037;-73
2023/04/08 04:42:52;;;;;;;2.80;1.30;;;;;;;;;;4998394;28;20038;-73
2023/04/08 04:45:18;;;;;;;2.95;1.50;;;;;;;;;;5005750;28;20042;-73
2023/04/08 04:47:44;;;;;;;2.72;1.58;;;;;;;;;;4998907;28;20153;-73
2023/04/08 04:50:10;;;;;;;3.20;1.48;;;;;;;;;;4989588;28;20072;-73
2023/04/08 04:52:36;;;;;;;1.92;1.33;;;;;;;;;;4990900;28;20035;-73
2023/04/08 04:55:02;;;;;;;2.15;1.23;;;;;;;;;;4995233;28;20022;-73
2023/04/08 04:57:28;;;;;;;1.40;1.08;;;;;;;;;;5001863;28;20084;-73
2023/04/08 04:59:54;;;;;;;2.20;1.27;;;;;;;;;;4992733;28;20034;-73
2023/04/08 05:02:23;;;;;;;4.70;1.80;;;;;;;;;;5006361;28;20037;-73
2023/04/08 05:04:52;;;;;;;1.77;1.30;;;;;;;;;;5008796;28;20041;-73
2023/04/08 05:07:24;;;;;;;1.48;1.10;;;;;;;;;;5008923;28;20080;-73
2023/04/08 05:09:50;;;;;;;1.92;1.30;;;;;;;;;;4990806;28;20026;-73
2023/04/08 05:12:16;;;;;;;2.00;1.40;;;;;;;;;;5004115;28;20036;-73
2023/04/08 05:14:42;;;;;;;2.58;1.42;;;;;;;;;;4999656;28;20103;-73
2023/04/08 05:17:08;;;;;;;3.72;1.60;;;;;;;;;;4990769;28;20482;-73
2023/04/08 05:19:36;;;;;;;2.25;1.70;;;;;;;;;;5000998;28;20118;-73
2023/04/08 05:22:02;;;;;;;2.50;1.67;;;;;;;;;;4995364;28;20030;-73
2023/04/08 05:24:28;;;;;;;2.65;1.38;;;;;;;;;;5001445;28;20109;-74
2023/04/08 05:26:56;;;;;;;3.15;1.38;;;;;;;;;;5008312;28;20101;-73
2023/04/08 05:29:22;;;;;;;1.98;1.30;;;;;;;;;;5003977;28;20048;-74
2023/04/08 05:31:48;;;;;;;4.13;1.33;;;;;;;;;;5008589;28;20026;-73
2023/04/08 05:34:14;;;;;;;1.67;1.08;;;;;;;;;;4989548;28;20081;-73
2023/04/08 05:36:41;;;;;;;1.73;1.38;;;;;;;;;;4989228;28;20448;-74
2023/04/08 05:39:07;;;;;;;2.42;1.48;;;;;;;;;;4997352;28;20049;-73
2023/04/08 05:41:33;;;;;;;2.17;1.50;;;;;;;;;;4997086;28;20034;-73
2023/04/08 05:43:59;;;;;;;5.32;1.60;;;;;;;;;;4989060;28;20068;-73
2023/04/08 05:46:25;;;;;;;1.98;1.30;;;;;;;;;;4993710;28;20045;-73
2023/04/08 05:48:51;;;;;;;2.65;1.50;;;;;;;;;;5004439;28;20018;-73
2023/04/08 05:51:17;;;;;;;3.97;1.88;;;;;;;;;;5003814;28;20038;-74
2023/04/08 05:53:45;;;;;;;2.17;1.50;;;;;;;;;;4995037;28;20113;-74
2023/04/08 05:56:11;;;;;;;2.83;1.92;;;;;;;;;;5004568;28;20052;-74
2023/04/08 05:58:40;;;;;;;3.63;2.00;;;;;;;;;;5004979;28;20052;-74
2023/04/08 06:01:06;;;;;;;3.33;1.70;;;;;;;;;;5005186;28;20030;-73
2023/04/08 06:03:32;;;;;;;2.35;1.55;;;;;;;;;;4999343;28;20018;-73
2023/04/08 06:05:58;;;;;;;2.42;1.60;;;;;;;;;;4988585;28;20532;-73
2023/04/08 06:08:24;;;;;;;4.18;1.63;;;;;;;;;;4999810;28;20030;-74
2023/04/08 06:10:50;;;;;;;3.13;2.00;;;;;;;;;;4997089;28;20185;-73
2023/04/08 06:13:16;;;;;;;2.75;1.80;;;;;;;;;;4996724;28;20070;-73
2023/04/08 06:15:42;;;;;;;4.03;1.70;;;;;;;;;;4994717;28;20038;-73
2023/04/08 06:18:11;;;;;;;4.03;1.63;;;;;;;;;;4998905;28;20056;-73
2023/04/08 06:20:36;;;;;;;2.10;1.60;;;;;;;;;;4992304;28;20073;-73
2023/04/08 06:23:02;;;;;;;2.72;1.70;;;;;;;;;;5005788;28;20385;-74
2023/04/08 06:25:28;;;;;;;4.57;1.75;;;;;;;;;;4996635;28;20088;-73
2023/04/08 06:27:54;;;;;;;5.53;1.83;;;;;;;;;;5004602;28;20022;-74
2023/04/08 06:30:21;;;;;;;2.97;1.75;;;;;;;;;;5005414;28;20106;-73
2023/04/08 06:32:47;;;;;;;3.22;1.80;;;;;;;;;;4996393;28;20030;-73
2023/04/08 06:35:13;;;;;;;2.90;1.90;;;;;;;;;;5000657;28;20022;-73
2023/04/08 06:37:39;;;;;;;4.13;2.08;;;;;;;;;;4992743;28;20034;-74
2023/04/08 06:40:05;;;;;;;3.53;1.80;;;;;;;;;;4987898;28;20260;-73
2023/04/08 06:42:31;;;;;;;3.38;1.50;;;;;;;;;;4996889;28;20050;-74
2023/04/08 06:44:58;;;;;;;3.08;1.40;;;;;;;;;;4994540;28;20041;-73
2023/04/08 06:47:24;;;;;;;3.50;1.70;;;;;;;;;;4997698;28;20014;-74
2023/04/08 06:49:50;;;;;;;3.03;1.52;;;;;;;;;;4999920;28;20438;-73
2023/04/08 06:52:16;;;;;;;2.45;1.60;;;;;;;;;;4990840;28;20389;-73
2023/04/08 06:54:42;;;;;;;6.00;1.83;;;;;;;;;;4999903;28;20033;-73
2023/04/08 06:57:08;;;;;;;3.03;1.75;;;;;;;;;;5000652;28;20525;-73
2023/04/08 06:59:35;;;;;;;2.85;1.73;;;;;;;;;;4999707;28;20543;-74
2023/04/08 07:02:01;;;;;;;5.10;2.30;;;;;;;;;;5005929;28;20061;-74
2023/04/08 07:04:27;;;;;;;3.70;1.88;;;;;;;;;;4998575;28;20157;-73
2023/04/08 07:06:53;;;;;;;4.07;2.13;;;;;;;;;;4994445;28;20488;-73
2023/04/08 07:09:19;;;;;;;3.17;2.10;;;;;;;;;;5002915;28;20045;-73
2023/04/08 07:11:45;;;;;;;3.20;2.10;;;;;;;;;;5004956;28;20045;-74
2023/04/08 07:14:11;;;;;;;2.15;1.42;;;;;;;;;;5001676;28;20612;-73
2023/04/08 07:16:37;;;;;;;1.92;1.33;;;;;;;;;;4992723;28;20026;-74
2023/04/08 07:19:03;;;;;;;2.42;2.00;;;;;;;;;;5004002;28;20022;-73
2023/04/08 07:21:30;;;;;;;3.80;2.25;;;;;;;;;;4995118;28;20481;-74
2023/04/08 07:23:56;;;;;;;3.28;1.95;;;;;;;;;;4992600;28;20074;-73
2023/04/08 07:26:22;;;;;;;6.75;2.42;;;;;;;;;;5000587;28;20164;-73
2023/04/08 07:28:48;;;;;;;2.00;1.52;;;;;;;;;;4998374;28;20033;-73
2023/04/08 07:31:15;;;;;;;3.95;2.25;;;;;;;;;;5000925;28;20039;-74
2023/04/08 07:33:42;;;;;;;5.32;2.10;;;;;;;;;;4998240;28;20046;-73
2023/04/08 07:36:12;;;;;;;3.80;2.20;;;;;;;;;;4991277;28;20066;-73
2023/04/08 07:38:38;;;;;;;2.67;1.83;;;;;;;;;;4998680;28;20093;-72
2023/04/08 07:41:04;;;;;;;3.60;2.17;;;;;;;;;;5002369;28;20031;-73
2023/04/08 07:43:31;;;;;;;2.97;1.85;;;;;;;;;;4995304;28;20053;-73
2023/04/08 07:46:02;;;;;;;3.25;1.95;;;;;;;;;;4997852;28;20037;-74
2023/04/08 07:48:28;;;;;;;2.55;1.75;;;;;;;;;;4995211;28;20100;-73
2023/04/08 07:50:55;;;;;;;4.80;2.08;;;;;;;;;;4990977;28;20084;-73
2023/04/08 07:53:22;;;;;;;6.43;2.42;;;;;;;;;;4995361;28;20401;-74
2023/04/08 07:55:48;;;;;;;4.20;2.22;;;;;;;;;;5001295;28;20477;-73
2023/04/08 07:58:14;;;;;;;2.75;2.20;;;;;;;;;;4997876;28;20038;-72
2023/04/08 08:00:40;;;;;;;4.05;1.95;;;;;;;;;;4994478;28;20030;-73
2023/04/08 08:03:06;;;;;;;3.13;1.98;;;;;;;;;;5005347;28;20049;-73
2023/04/08 08:05:32;;;;;;;2.75;2.13;;;;;;;;;;4990691;28;20022;-74
2023/04/08 08:07:58;;;;;;;4.93;2.35;;;;;;;;;;5002650;28;20026;-73
2023/04/08 08:10:24;;;;;;;3.40;2.15;;;;;;;;;;5004510;28;20020;-73
2023/04/08 08:13:00;;;;;;;5.32;2.15;;;;;;;;;;4998286;28;20037;-73
2023/04/08 08:15:26;;;;;;;5.15;2.63;;;;;;;;;;5001099;28;20201;-73
2023/04/08 08:17:52;;;;;;;3.58;2.30;;;;;;;;;;5007007;28;20026;-73
2023/04/08 08:20:18;;;;;;;3.38;1.95;;;;;;;;;;5008261;28;20033;-73
2023/04/08 08:22:44;;;;;;;3.78;2.05;;;;;;;;;;4998653;28;20112;-73
2023/04/08 08:25:10;;;;;;;3.92;2.50;;;;;;;;;;4997052;28;20018;-74
2023/04/08 08:27:36;;;;;;;2.22;1.60;;;;;;;;;;5007405;28;20075;-75
2023/04/08 08:30:03;;;;;;;2.75;1.67;;;;;;;;;;5008894;28;20515;-74
2023/04/08 08:32:29;;;;;;;3.45;2.00;;;;;;;;;;5004215;28;20061;-74
2023/04/08 08:34:55;;;;;;;6.80;2.15;;;;;;;;;;4989773;28;20057;-74
2023/04/08 08:37:21;;;;;;;3.42;2.03;;;;;;;;;;4990563;28;20389;-73
2023/04/08 08:39:47;;;;;;;5.32;2.55;;;;;;;;;;4989335;28;20543;-74
2023/04/08 08:42:22;;;;;;;3.20;1.60;;;;;;;;;;4991139;28;20038;-75
2023/04/08 08:44:51;;;;;;;5.35;2.95;;;;;;;;;;4995201;28;20040;-74
2023/04/08 08:47:18;;;;;;;3.28;1.98;;;;;;;;;;4997567;28;20084;-74
2023/04/08 08:49:44;;;;;;;2.42;1.90;;;;;;;;;;5006508;28;20018;-74
2023/04/08 08:52:10;;;;;;;6.57;2.38;;;;;;;;;;5004688;28;20029;-73
2023/04/08 08:54:37;;;;;;;5.70;2.05;;;;;;;;;;5009343;28;20033;-73
2023/04/08 08:57:03;;;;;;;5.32;2.10;;;;;;;;;;5002613;28;20073;-73
2023/04/08 08:59:29;;;;;;;4.78;2.30;;;;;;;;;;5000356;28;20048;-73
2023/04/08 09:01:55;;;;;;;4.93;2.25;;;;;;;;;;4998892;28;20026;-74
2023/04/08 09:04:23;;;;;;;6.10;2.53;;;;;;;;;;4995980;28;20023;-74
2023/04/08 09:07:07;;;;;;;5.07;2.10;;;;;;;;;;4991994;28;20062;-73
2023/04/08 09:09:48;;;;;;;3.60;2.22;;;;;;;;;;5002742;28;20030;-74
2023/04/08 09:12:14;;;;;;;4.60;2.10;;;;;;;;;;5003239;28;20033;-74
2023/04/08 09:14:40;;;;;;;3.60;2.30;;;;;;;;;;5008877;28;20041;-73
2023/04/08 09:17:06;;;;;;;3.00;2.13;;;;;;;;;;5008498;28;20021;-72
2023/04/08 09:19:32;;;;;;;4.88;2.55;;;;;;;;;;5007074;28;20037;-73
2023/04/08 09:22:08;;;;;;;5.75;2.17;;;;;;;;;;4997060;28;20026;-72
2023/04/08 09:24:35;;;;;;;6.35;2.50;;;;;;;;;;4993360;28;21939;-73
2023/04/08 09:27:02;;;;;;;3.55;2.10;;;;;;;;;;5005536;28;20022;-72
2023/04/08 09:29:27;;;;;;;4.95;2.05;;;;;;;;;;4999459;28;20033;-72
2023/04/08 09:31:55;;;;;;;4.20;2.25;;;;;;;;;;4992369;28;20406;-73
2023/04/08 09:34:22;;;;;;;3.78;2.25;;;;;;;;;;5006105;28;20056;-73
2023/04/08 09:36:48;;;;;;;4.35;2.10;;;;;;;;;;4995282;28;20034;-73
2023/04/08 09:39:14;;;;;;;4.78;2.08;;;;;;;;;;4989037;28;20469;-73
2023/04/08 09:41:41;;;;;;;4.53;1.80;;;;;;;;;;5006010;28;20366;-73
2023/04/08 09:44:09;;;;;;;5.47;2.20;;;;;;;;;;4989820;28;20041;-73
2023/04/08 09:46:39;;;;;;;3.25;1.92;;;;;;;;;;4994914;28;20053;-72
2023/04/08 09:49:12;;;;;;;3.45;2.30;;;;;;;;;;4989042;28;20018;-73
2023/04/08 09:51:58;;;;;;;3.47;2.22;;;;;;;;;;4995828;28;20493;-72
2023/04/08 09:54:25;;;;;;;6.45;2.63;;;;;;;;;;5002760;28;20083;-73
2023/04/08 09:56:58;;;;;;;5.32;2.25;;;;;;;;;;5002686;28;20037;-72
2023/04/08 09:59:27;;;;;;;3.15;2.03;;;;;;;;;;4988544;28;20046;-72
2023/04/08 10:01:54;;;;;;;5.05;2.55;;;;;;;;;;5006455;28;20034;-73
2023/04/08 10:04:20;;;;;;;3.92;2.00;;;;;;;;;;5001116;28;20026;-73
2023/04/08 10:06:52;;;;;;;5.25;2.25;;;;;;;;;;4998034;28;20034;-73
2023/04/08 10:09:19;;;;;;;3.85;2.22;;;;;;;;;;4994055;28;20106;-73
2023/04/08 10:11:45;;;;;;;4.00;2.38;;;;;;;;;;4999042;28;20018;-73
2023/04/08 10:14:11;;;;;;;3.90;2.00;;;;;;;;;;4998253;28;20025;-73
2023/04/08 10:16:37;;;;;;;3.95;2.22;;;;;;;;;;5000899;28;20058;-73
2023/04/08 10:19:23;;;;;;;3.47;2.20;;;;;;;;;;4996904;28;20109;-73
2023/04/08 10:21:49;;;;;;;2.60;1.73;;;;;;;;;;4987973;28;20547;-73
2023/04/08 10:24:17;;;;;;;3.35;1.88;;;;;;;;;;5001308;28;20026;-73
2023/04/08 10:26:44;;;;;;;3.92;2.25;;;;;;;;;;4997585;28;20033;-74
2023/04/08 10:29:16;;;;;;;5.85;2.20;;;;;;;;;;4998381;28;20524;-73
2023/04/08 10:31:42;;;;;;;4.65;2.08;;;;;;;;;;4988358;28;20085;-74
2023/04/08 10:34:18;;;;;;;3.88;2.03;;;;;;;;;;4994179;28;20108;-74
2023/04/08 10:36:45;;;;;;;5.40;2.53;;;;;;;;;;5007774;28;20030;-73
2023/04/08 10:39:11;;;;;;;3.47;2.38;;;;;;;;;;5007299;28;20038;-73
2023/04/08 10:41:42;;;;;;;3.78;1.92;;;;;;;;;;5008043;28;20030;-73
2023/04/08 10:44:18;;;;;;;4.97;2.25;;;;;;;;;;5027315;28;20750;-73
2023/04/08 10:46:45;;;;;;;3.33;2.25;;;;;;;;;;5027676;28;20022;-73
2023/04/08 10:49:11;;;;;;;4.95;2.75;;;;;;;;;;5017825;28;20436;-73
2023/04/08 10:51:37;;;;;;;3.90;2.13;;;;;;;;;;5023006;28;20038;-73
2023/04/08 10:54:07;;;;;;;6.05;2.33;;;;;;;;;;5011888;28;20087;-73
2023/04/08 10:56:33;;;;;;;3.08;1.80;;;;;;;;;;5021092;28;20103;-74
2023/04/08 10:58:59;;;;;;;3.58;2.15;;;;;;;;;;5007900;28;20022;-73
2023/04/08 11:01:26;;;;;;;3.72;2.13;;;;;;;;;;5013576;28;20405;-73
2023/04/08 11:03:52;;;;;;;5.15;2.25;;;;;;;;;;5016582;28;20084;-73
2023/04/08 11:06:18;;;;;;;4.88;1.75;;;;;;;;;;5021683;28;20029;-73
2023/04/08 11:08:44;;;;;;;4.70;2.03;;;;;;;;;;5019271;28;20506;-73
2023/04/08 11:11:11;;;;;;;2.83;1.95;;;;;;;;;;5017152;28;20400;-73
2023/04/08 11:13:38;;;;;;;4.72;2.15;;;;;;;;;;5011591;28;20033;-73
2023/04/08 11:16:06;;;;;;;5.22;2.08;;;;;;;;;;5020650;28;20026;-73
2023/04/08 11:18:33;;;;;;;3.20;1.98;;;;;;;;;;5027378;28;20040;-73
2023/04/08 11:21:00;;;;;;;3.70;2.08;;;;;;;;;;5014444;28;20049;-73
2023/04/08 11:23:26;;;;;;;5.82;1.80;;;;;;;;;;5010978;28;20140;-73
2023/04/08 11:25:53;;;;;;;4.47;2.25;;;;;;;;;;5015873;28;20417;-73
2023/04/08 11:28:19;;;;;;;5.38;2.08;;;;;;;;;;5017615;28;20040;-73
2023/04/08 11:30:46;;;;;;;3.13;2.30;;;;;;;;;;5013916;28;20517;-73
2023/04/08 11:33:12;;;;;;;4.13;2.25;;;;;;;;;;5011017;28;20112;-73
2023/04/08 11:35:42;;;;;;;4.88;2.28;;;;;;;;;;5021610;28;20045;-73
2023/04/08 11:38:08;;;;;;;5.28;1.90;;;;;;;;;;5015909;28;20038;-73
2023/04/08 11:40:34;;;;;;;4.07;1.95;;;;;;;;;;5010933;28;20046;-74
2023/04/08 11:43:08;;;;;;;3.72;2.20;;;;;;;;;;5010858;28;20151;-73
2023/04/08 11:45:38;;;;;;;4.25;2.45;;;;;;;;;;5009930;28;20109;-73
2023/04/08 11:48:10;;;;;;;3.85;2.10;;;;;;;;;;5010482;28;20029;-73
2023/04/08 11:50:36;;;;;;;2.90;1.80;;;;;;;;;;5008654;28;20014;-73
2023/04/08 11:53:05;;;;;;;3.42;2.00;;;;;;;;;;4997694;28;20294;-73
2023/04/08 11:55:32;;;;;;;5.03;2.47;;;;;;;;;;4998740;28;20056;-73
2023/04/08 11:58:03;;;;;;;2.65;1.67;;;;;;;;;;5009419;28;20034;-74
2023/04/08 12:00:29;;;;;;;4.55;2.40;;;;;;;;;;5009490;28;20030;-73
2023/04/08 12:02:55;;;;;;;3.78;1.95;;;;;;;;;;5007118;28;20042;-73
2023/04/08 12:05:21;;;;;;;3.97;1.92;;;;;;;;;;5005657;28;20033;-74
2023/04/08 12:07:47;;;;;;;4.68;2.13;;;;;;;;;;5007682;28;20026;-74
2023/04/08 12:10:13;;;;;;;4.50;2.35;;;;;;;;;;5000430;28;20021;-78
2023/04/08 12:12:39;;;;;;;3.38;2.03;;;;;;;;;;4998677;28;20860;-76
2023/04/08 12:15:07;;;;;;;4.55;2.53;;;;;;;;;;5002130;28;20018;-75
2023/04/08 12:17:33;;;;;;;4.25;2.53;;;;;;;;;;4999405;28;20445;-74
2023/04/08 12:19:59;;;;;;;3.55;1.90;;;;;;;;;;5009282;28;20034;-74
2023/04/08 12:22:25;;;;;;;3.00;1.75;;;;;;;;;;4992979;28;20254;-74
2023/04/08 12:24:51;;;;;;;3.97;2.42;;;;;;;;;;4995135;28;20030;-73
2023/04/08 12:27:20;;;;;;;2.85;2.00;;;;;;;;;;5004352;28;20040;-76
2023/04/08 12:29:48;;;;;;;4.75;2.10;;;;;;;;;;5005511;28;20433;-76
2023/04/08 12:32:14;;;;;;;4.25;2.60;;;;;;;;;;5009051;28;20113;-71
2023/04/08 12:34:40;;;;;;;5.72;2.40;;;;;;;;;;5009016;28;20041;-74
2023/04/08 12:37:06;;;;;;;5.05;2.58;;;;;;;;;;5005263;28;20026;-73
2023/04/08 12:39:32;;;;;;;3.95;2.33;;;;;;;;;;5007403;28;20076;-73
2023/04/08 12:41:58;;;;;;;4.30;2.20;;;;;;;;;;5001625;28;20077;-74
2023/04/08 12:44:27;;;;;;;3.15;2.10;;;;;;;;;;4990945;28;20022;-73
2023/04/08 12:46:53;;;;;;;4.22;2.25;;;;;;;;;;4999459;28;20022;-73
2023/04/08 12:49:22;;;;;;;3.67;2.20;;;;;;;;;;4996640;28;20117;-73
2023/04/08 12:51:54;;;;;;;3.20;2.17;;;;;;;;;;5004776;28;20038;-75
2023/04/08 12:54:20;;;;;;;5.50;2.50;;;;;;;;;;4989981;28;20049;-73
2023/04/08 12:56:47;;;;;;;3.22;1.90;;;;;;;;;;5006958;28;20069;-73
2023/04/08 12:59:13;;;;;;;3.03;1.88;;;;;;;;;;5007042;28;20037;-73
2023/04/08 13:01:39;;;;;;;5.78;2.50;;;;;;;;;;5007018;28;20046;-73
2023/04/08 13:04:05;;;;;;;3.78;1.80;;;;;;;;;;5008359;28;20476;-73
2023/04/08 13:06:31;;;;;;;4.82;2.20;;;;;;;;;;4996812;28;20441;-74
2023/04/08 13:08:57;;;;;;;4.05;1.88;;;;;;;;;;4989891;28;20027;-74
2023/04/08 13:11:23;;;;;;;2.50;1.65;;;;;;;;;;5000277;28;20088;-74
2023/04/08 13:13:49;;;;;;;3.63;1.73;;;;;;;;;;4998418;28;20336;-73
2023/04/08 13:16:15;;;;;;;2.42;1.80;;;;;;;;;;5008368;28;20511;-74
2023/04/08 13:18:41;;;;;;;2.47;1.88;;;;;;;;;;5001439;28;20178;-74
2023/04/08 13:21:07;;;;;;;3.28;2.00;;;;;;;;;;4988520;28;20022;-74
2023/04/08 13:23:33;;;;;;;3.20;1.98;;;;;;;;;;4988705;28;20038;-74
2023/04/08 13:26:00;;;;;;;4.32;1.85;;;;;;;;;;4992325;28;20125;-74
2023/04/08 13:28:26;;;;;;;2.60;1.90;;;;;;;;;;4996573;28;20023;-74
2023/04/08 13:30:52;;;;;;;3.17;2.05;;;;;;;;;;4985525;28;20493;-74
2023/04/08 13:33:18;;;;;;;3.03;1.75;;;;;;;;;;4987312;28;20026;-74
2023/04/08 13:35:44;;;;;;;2.90;1.90;;;;;;;;;;4988601;28;20042;-74
2023/04/08 13:38:11;;;;;;;6.63;2.40;;;;;;;;;;4992282;28;20034;-74
2023/04/08 13:40:37;;;;;;;4.57;2.47;;;;;;;;;;4989096;28;20051;-74
2023/04/08 13:43:03;;;;;;;2.97;2.00;;;;;;;;;;5000579;28;20116;-74
2023/04/08 13:45:29;;;;;;;4.30;2.40;;;;;;;;;;5006342;28;20037;-74
2023/04/08 13:47:55;;;;;;;2.78;1.85;;;;;;;;;;5007667;28;20087;-74
2023/04/08 13:50:21;;;;;;;5.50;2.45;;;;;;;;;;5002769;28;20026;-74
2023/04/08 13:52:47;;;;;;;3.55;2.35;;;;;;;;;;4984939;28;20033;-74
2023/04/08 13:55:13;;;;;;;5.20;2.60;;;;;;;;;;4994754;28;20492;-74
2023/04/08 13:57:39;;;;;;;4.55;2.42;;;;;;;;;;5000559;28;20566;-73
2023/04/08 14:00:05;;;;;;;4.60;2.42;;;;;;;;;;4989571;28;20037;-74
2023/04/08 14:02:31;;;;;;;6.00;2.88;;;;;;;;;;4995534;28;20105;-74
2023/04/08 14:04:57;;;;;;;5.93;2.38;;;;;;;;;;5004651;28;20049;-74
2023/04/08 14:07:23;;;;;;;5.28;2.40;;;;;;;;;;5002438;28;20041;-74
2023/04/08 14:09:49;;;;;;;3.15;1.98;;;;;;;;;;5002776;28;20038;-74
2023/04/08 14:12:15;;;;;;;3.65;2.22;;;;;;;;;;4992011;28;20034;-74
2023/04/08 14:14:41;;;;;;;4.43;2.08;;;;;;;;;;4989543;28;20106;-73
2023/04/08 14:17:07;;;;;;;4.30;2.28;;;;;;;;;;4987010;28;20465;-74
2023/04/08 14:19:33;;;;;;;4.50;2.17;;;;;;;;;;4999924;28;20570;-74
2023/04/08 14:22:00;;;;;;;4.90;2.55;;;;;;;;;;5001928;28;20046;-73
2023/04/08 14:24:26;;;;;;;3.63;2.15;;;;;;;;;;4978435;28;20026;-72
2023/04/08 14:26:54;;;;;;;4.15;2.20;;;;;;;;;;4989836;28;20022;-72
2023/04/08 14:29:22;;;;;;;4.97;2.40;;;;;;;;;;4997466;28;20034;-72
2023/04/08 14:31:48;;;;;;;3.55;2.28;;;;;;;;;;4971187;28;20518;-72
2023/04/08 14:34:15;;;;;;;5.28;2.47;;;;;;;;;;4978422;28;20084;-73
2023/04/08 14:36:41;;;;;;;2.53;2.10;;;;;;;;;;5005979;28;20073;-72
2023/04/08 14:39:08;;;;;;;3.97;2.20;;;;;;;;;;5000991;28;20050;-73
2023/04/08 14:41:34;;;;;;;4.35;2.30;;;;;;;;;;5007011;28;20026;-73